sensor_id;sensor_type;location;lat;lon;timestamp;temperature;humidity
44990;DHT22;30723;51.206;3.326;2023-04-01T00:01:12;10.10;99.90
44990;DHT22;30723;51.206;3.326;2023-04-01T00:03:42;10.10;99.90
44990;DHT22;30723;51.206;3.326;2023-04-01T00:06:11;10.00;99.90
44990;DHT22;30723;51.206;3.326;2023-04-01T00:08:39;10.00;99.90
44990;DHT22;30723;51.206;3.326;2023-04-01T00:11:04;10.00;99.90
44990;DHT22;30723;51.206;3.326;2023-04-01T00:13:30;10.00;99.90
44990;DHT22;30723;51.206;3.326;2023-04-01T00:15:57;9.90;99.90
44990;DHT22;30723;51.206;3.326;2023-04-01T00:18:24;9.90;99.90
44990;DHT22;30723;51.206;3.326;2023-04-01T00:20:52;9.90;99.90
44990;DHT22;30723;51.206;3.326;2023-04-01T00:23:19;9.80;99.90
44990;DHT22;30723;51.206;3.326;2023-04-01T00:25:46;9.80;99.90
44990;DHT22;30723;51.206;3.326;2023-04-01T00:28:17;9.90;99.90
44990;DHT22;30723;51.206;3.326;2023-04-01T00:30:44;9.80;99.90
44990;DHT22;30723;51.206;3.326;2023-04-01T00:33:11;9.80;99.90
44990;DHT22;30723;51.206;3.326;2023-04-01T00:35:38;9.80;99.90
44990;DHT22;30723;51.206;3.326;2023-04-01T00:38:05;9.80;99.90
44990;DHT22;30723;51.206;3.326;2023-04-01T00:40:38;9.80;99.90
44990;DHT22;30723;51.206;3.326;2023-04-01T00:43:17;9.70;99.90
44990;DHT22;30723;51.206;3.326;2023-04-01T00:45:45;9.80;99.90
44990;DHT22;30723;51.206;3.326;2023-04-01T00:48:31;9.80;99.90
44990;DHT22;30723;51.206;3.326;2023-04-01T00:51:20;9.80;99.90
44990;DHT22;30723;51.206;3.326;2023-04-01T00:53:50;9.80;99.90
44990;DHT22;30723;51.206;3.326;2023-04-01T00:56:22;9.80;99.90
44990;DHT22;30723;51.206;3.326;2023-04-01T00:59:00;9.80;99.90
44990;DHT22;30723;51.206;3.326;2023-04-01T01:01:28;9.80;99.90
44990;DHT22;30723;51.206;3.326;2023-04-01T01:03:55;9.80;99.90
44990;DHT22;30723;51.206;3.326;2023-04-01T01:09:30;9.70;99.90
44990;DHT22;30723;51.206;3.326;2023-04-01T01:12:31;9.70;99.90
44990;DHT22;30723;51.206;3.326;2023-04-01T01:23:29;9.80;99.90
44990;DHT22;30723;51.206;3.326;2023-04-01T01:37:28;9.70;99.90
44990;DHT22;30723;51.206;3.326;2023-04-01T01:40:00;9.70;99.90
44990;DHT22;30723;51.206;3.326;2023-04-01T01:42:29;9.70;99.90
44990;DHT22;30723;51.206;3.326;2023-04-01T01:44:57;9.70;99.90
44990;DHT22;30723;51.206;3.326;2023-04-01T01:47:26;9.70;99.90
44990;DHT22;30723;51.206;3.326;2023-04-01T01:49:55;9.60;99.90
44990;DHT22;30723;51.206;3.326;2023-04-01T01:52:26;9.70;99.90
44990;DHT22;30723;51.206;3.326;2023-04-01T01:54:56;9.70;99.90
44990;DHT22;30723;51.206;3.326;2023-04-01T01:57:45;9.60;99.90
44990;DHT22;30723;51.206;3.326;2023-04-01T02:00:14;9.60;99.90
44990;DHT22;30723;51.206;3.326;2023-04-01T02:02:42;9.60;99.90
44990;DHT22;30723;51.206;3.326;2023-04-01T02:05:29;9.70;99.90
44990;DHT22;30723;51.206;3.326;2023-04-01T02:08:04;9.60;99.90
44990;DHT22;30723;51.206;3.326;2023-04-01T02:10:35;9.70;99.90
44990;DHT22;30723;51.206;3.326;2023-04-01T02:13:08;9.60;99.90
44990;DHT22;30723;51.206;3.326;2023-04-01T02:15:42;9.70;99.90
44990;DHT22;30723;51.206;3.326;2023-04-01T02:18:13;9.70;99.90
44990;DHT22;30723;51.206;3.326;2023-04-01T02:20:41;9.70;99.90
44990;DHT22;30723;51.206;3.326;2023-04-01T02:23:08;9.60;99.90
44990;DHT22;30723;51.206;3.326;2023-04-01T02:25:36;9.60;99.90
44990;DHT22;30723;51.206;3.326;2023-04-01T02:28:06;9.70;99.90
44990;DHT22;30723;51.206;3.326;2023-04-01T02:30:35;9.70;99.90
44990;DHT22;30723;51.206;3.326;2023-04-01T02:33:04;9.60;99.90
44990;DHT22;30723;51.206;3.326;2023-04-01T02:35:34;9.70;99.90
44990;DHT22;30723;51.206;3.326;2023-04-01T02:38:02;9.70;99.90
44990;DHT22;30723;51.206;3.326;2023-04-01T02:40:29;9.70;99.90
44990;DHT22;30723;51.206;3.326;2023-04-01T02:42:55;9.60;99.90
44990;DHT22;30723;51.206;3.326;2023-04-01T02:45:22;9.60;99.90
44990;DHT22;30723;51.206;3.326;2023-04-01T02:47:47;9.60;99.90
44990;DHT22;30723;51.206;3.326;2023-04-01T02:50:14;9.60;99.90
44990;DHT22;30723;51.206;3.326;2023-04-01T02:52:41;9.50;99.90
44990;DHT22;30723;51.206;3.326;2023-04-01T02:55:09;9.40;99.90
44990;DHT22;30723;51.206;3.326;2023-04-01T02:57:35;9.40;99.90
44990;DHT22;30723;51.206;3.326;2023-04-01T03:00:02;9.40;99.90
44990;DHT22;30723;51.206;3.326;2023-04-01T03:02:29;9.40;99.90
44990;DHT22;30723;51.206;3.326;2023-04-01T03:04:55;9.40;99.90
44990;DHT22;30723;51.206;3.326;2023-04-01T03:07:22;9.40;99.90
44990;DHT22;30723;51.206;3.326;2023-04-01T03:09:48;9.40;99.90
44990;DHT22;30723;51.206;3.326;2023-04-01T03:12:15;9.40;99.90
44990;DHT22;30723;51.206;3.326;2023-04-01T03:14:42;9.40;99.90
44990;DHT22;30723;51.206;3.326;2023-04-01T03:17:08;9.40;99.90
44990;DHT22;30723;51.206;3.326;2023-04-01T03:19:35;9.40;99.90
44990;DHT22;30723;51.206;3.326;2023-04-01T03:22:01;9.40;99.90
44990;DHT22;30723;51.206;3.326;2023-04-01T03:24:28;9.40;99.90
44990;DHT22;30723;51.206;3.326;2023-04-01T03:26:54;9.30;99.90
44990;DHT22;30723;51.206;3.326;2023-04-01T03:29:21;9.40;99.90
44990;DHT22;30723;51.206;3.326;2023-04-01T03:31:48;9.40;99.90
44990;DHT22;30723;51.206;3.326;2023-04-01T03:34:14;9.40;99.90
44990;DHT22;30723;51.206;3.326;2023-04-01T03:36:41;9.40;99.90
44990;DHT22;30723;51.206;3.326;2023-04-01T03:39:08;9.40;99.90
44990;DHT22;30723;51.206;3.326;2023-04-01T03:41:36;9.40;99.90
44990;DHT22;30723;51.206;3.326;2023-04-01T03:44:04;9.40;99.90
44990;DHT22;30723;51.206;3.326;2023-04-01T03:46:30;9.50;99.90
44990;DHT22;30723;51.206;3.326;2023-04-01T03:48:57;9.40;99.90
44990;DHT22;30723;51.206;3.326;2023-04-01T03:51:24;9.40;99.90
44990;DHT22;30723;51.206;3.326;2023-04-01T03:53:51;9.30;99.90
44990;DHT22;30723;51.206;3.326;2023-04-01T03:56:17;9.30;99.90
44990;DHT22;30723;51.206;3.326;2023-04-01T03:58:44;9.30;99.90
44990;DHT22;30723;51.206;3.326;2023-04-01T04:01:19;9.30;99.90
44990;DHT22;30723;51.206;3.326;2023-04-01T04:03:46;9.40;99.90
44990;DHT22;30723;51.206;3.326;2023-04-01T04:06:17;9.30;99.90
44990;DHT22;30723;51.206;3.326;2023-04-01T04:08:44;9.40;99.90
44990;DHT22;30723;51.206;3.326;2023-04-01T04:11:11;9.40;99.90
44990;DHT22;30723;51.206;3.326;2023-04-01T04:13:38;9.40;99.90
44990;DHT22;30723;51.206;3.326;2023-04-01T04:16:06;9.40;99.90
44990;DHT22;30723;51.206;3.326;2023-04-01T04:18:32;9.40;99.90
44990;DHT22;30723;51.206;3.326;2023-04-01T04:20:58;9.40;99.90
44990;DHT22;30723;51.206;3.326;2023-04-01T04:23:25;9.30;99.90
44990;DHT22;30723;51.206;3.326;2023-04-01T04:26:03;9.30;99.90
44990;DHT22;30723;51.206;3.326;2023-04-01T04:28:31;9.30;99.90
44990;DHT22;30723;51.206;3.326;2023-04-01T04:30:58;9.30;99.90
44990;DHT22;30723;51.206;3.326;2023-04-01T04:33:25;9.30;99.90
44990;DHT22;30723;51.206;3.326;2023-04-01T04:35:55;9.30;99.90
44990;DHT22;30723;51.206;3.326;2023-04-01T04:38:21;9.30;99.90
44990;DHT22;30723;51.206;3.326;2023-04-01T04:40:48;9.20;99.90
44990;DHT22;30723;51.206;3.326;2023-04-01T04:43:16;9.20;99.90
44990;DHT22;30723;51.206;3.326;2023-04-01T04:45:43;9.20;99.90
44990;DHT22;30723;51.206;3.326;2023-04-01T04:48:10;9.20;99.90
44990;DHT22;30723;51.206;3.326;2023-04-01T04:50:42;9.20;99.90
44990;DHT22;30723;51.206;3.326;2023-04-01T04:53:13;9.20;99.90
44990;DHT22;30723;51.206;3.326;2023-04-01T04:55:48;9.20;99.90
44990;DHT22;30723;51.206;3.326;2023-04-01T04:58:14;9.20;99.90
44990;DHT22;30723;51.206;3.326;2023-04-01T05:00:40;9.20;99.90
44990;DHT22;30723;51.206;3.326;2023-04-01T05:03:06;9.20;99.90
44990;DHT22;30723;51.206;3.326;2023-04-01T05:05:32;9.20;99.90
44990;DHT22;30723;51.206;3.326;2023-04-01T05:07:59;9.20;99.90
44990;DHT22;30723;51.206;3.326;2023-04-01T05:10:26;9.10;99.90
44990;DHT22;30723;51.206;3.326;2023-04-01T05:12:52;9.10;99.90
44990;DHT22;30723;51.206;3.326;2023-04-01T05:15:19;9.10;99.90
44990;DHT22;30723;51.206;3.326;2023-04-01T05:17:45;9.10;99.90
44990;DHT22;30723;51.206;3.326;2023-04-01T05:20:14;9.20;99.90
44990;DHT22;30723;51.206;3.326;2023-04-01T05:22:41;9.20;99.90
44990;DHT22;30723;51.206;3.326;2023-04-01T05:25:09;9.20;99.90
44990;DHT22;30723;51.206;3.326;2023-04-01T05:27:35;9.20;99.90
44990;DHT22;30723;51.206;3.326;2023-04-01T05:30:02;9.20;99.90
44990;DHT22;30723;51.206;3.326;2023-04-01T05:32:30;9.10;99.90
44990;DHT22;30723;51.206;3.326;2023-04-01T05:34:57;9.10;99.90
44990;DHT22;30723;51.206;3.326;2023-04-01T05:37:23;9.10;99.90
44990;DHT22;30723;51.206;3.326;2023-04-01T05:39:50;9.10;99.90
44990;DHT22;30723;51.206;3.326;2023-04-01T05:42:17;9.00;99.90
44990;DHT22;30723;51.206;3.326;2023-04-01T05:44:44;9.10;99.90
44990;DHT22;30723;51.206;3.326;2023-04-01T05:47:10;9.20;99.90
44990;DHT22;30723;51.206;3.326;2023-04-01T05:49:36;9.20;99.90
44990;DHT22;30723;51.206;3.326;2023-04-01T05:52:03;9.20;99.90
44990;DHT22;30723;51.206;3.326;2023-04-01T05:54:28;9.20;99.90
44990;DHT22;30723;51.206;3.326;2023-04-01T05:56:56;9.20;99.90
44990;DHT22;30723;51.206;3.326;2023-04-01T05:59:21;9.10;99.90
44990;DHT22;30723;51.206;3.326;2023-04-01T06:01:48;9.10;99.90
44990;DHT22;30723;51.206;3.326;2023-04-01T06:04:15;9.10;99.90
44990;DHT22;30723;51.206;3.326;2023-04-01T06:06:42;9.10;99.90
44990;DHT22;30723;51.206;3.326;2023-04-01T06:09:25;9.00;99.90
44990;DHT22;30723;51.206;3.326;2023-04-01T06:17:21;9.00;99.90
44990;DHT22;30723;51.206;3.326;2023-04-01T06:31:34;9.10;99.90
44990;DHT22;30723;51.206;3.326;2023-04-01T06:37:28;9.10;99.90
44990;DHT22;30723;51.206;3.326;2023-04-01T06:43:23;9.10;99.90
44990;DHT22;30723;51.206;3.326;2023-04-01T06:46:21;9.10;99.90
44990;DHT22;30723;51.206;3.326;2023-04-01T06:52:14;9.20;99.90
44990;DHT22;30723;51.206;3.326;2023-04-01T06:54:58;9.20;99.90
44990;DHT22;30723;51.206;3.326;2023-04-01T06:57:47;9.20;99.90
44990;DHT22;30723;51.206;3.326;2023-04-01T07:00:40;9.10;99.90
44990;DHT22;30723;51.206;3.326;2023-04-01T07:03:30;9.20;99.90
44990;DHT22;30723;51.206;3.326;2023-04-01T07:06:13;9.00;99.90
44990;DHT22;30723;51.206;3.326;2023-04-01T07:08:41;9.00;99.90
44990;DHT22;30723;51.206;3.326;2023-04-01T07:11:28;9.10;99.90
44990;DHT22;30723;51.206;3.326;2023-04-01T07:17:00;9.10;99.90
44990;DHT22;30723;51.206;3.326;2023-04-01T07:25:38;9.10;99.90
44990;DHT22;30723;51.206;3.326;2023-04-01T07:28:11;9.10;99.90
44990;DHT22;30723;51.206;3.326;2023-04-01T07:41:26;9.20;99.90
44990;DHT22;30723;51.206;3.326;2023-04-01T07:44:07;9.10;99.90
44990;DHT22;30723;51.206;3.326;2023-04-01T07:47:04;9.20;99.90
44990;DHT22;30723;51.206;3.326;2023-04-01T08:05:27;9.20;99.90
44990;DHT22;30723;51.206;3.326;2023-04-01T08:08:00;9.30;99.90
44990;DHT22;30723;51.206;3.326;2023-04-01T08:21:35;9.60;99.90
44990;DHT22;30723;51.206;3.326;2023-04-01T08:24:29;9.50;99.90
44990;DHT22;30723;51.206;3.326;2023-04-01T08:27:01;9.40;99.90
44990;DHT22;30723;51.206;3.326;2023-04-01T08:29:42;9.40;99.90
44990;DHT22;30723;51.206;3.326;2023-04-01T08:32:28;9.40;99.90
44990;DHT22;30723;51.206;3.326;2023-04-01T08:37:36;9.50;99.90
44990;DHT22;30723;51.206;3.326;2023-04-01T08:46:23;9.60;99.90
44990;DHT22;30723;51.206;3.326;2023-04-01T08:52:21;9.50;99.90
44990;DHT22;30723;51.206;3.326;2023-04-01T09:00:53;9.40;99.90
44990;DHT22;30723;51.206;3.326;2023-04-01T09:17:45;9.60;99.90
44990;DHT22;30723;51.206;3.326;2023-04-01T09:31:04;9.70;99.90
44990;DHT22;30723;51.206;3.326;2023-04-01T09:38:59;9.80;99.90
44990;DHT22;30723;51.206;3.326;2023-04-01T09:44:37;9.70;99.90
44990;DHT22;30723;51.206;3.326;2023-04-01T09:56:18;9.70;99.90
44990;DHT22;30723;51.206;3.326;2023-04-01T10:34:48;9.60;99.90
44990;DHT22;30723;51.206;3.326;2023-04-01T10:57:47;9.80;99.90
44990;DHT22;30723;51.206;3.326;2023-04-01T11:20:07;10.10;99.90
44990;DHT22;30723;51.206;3.326;2023-04-01T11:25:51;10.10;99.90
44990;DHT22;30723;51.206;3.326;2023-04-01T11:37:37;10.00;99.90
44990;DHT22;30723;51.206;3.326;2023-04-01T12:00:15;10.20;99.90
44990;DHT22;30723;51.206;3.326;2023-04-01T12:03:10;10.20;99.90
44990;DHT22;30723;51.206;3.326;2023-04-01T12:11:32;10.00;99.90
44990;DHT22;30723;51.206;3.326;2023-04-01T12:17:09;10.00;99.90
44990;DHT22;30723;51.206;3.326;2023-04-01T12:28:49;10.20;99.90
44990;DHT22;30723;51.206;3.326;2023-04-01T12:32:09;10.30;99.90
44990;DHT22;30723;51.206;3.326;2023-04-01T12:40:20;10.20;99.90
44990;DHT22;30723;51.206;3.326;2023-04-01T12:48:42;10.10;99.90
44990;DHT22;30723;51.206;3.326;2023-04-01T12:58:22;9.80;99.90
44990;DHT22;30723;51.206;3.326;2023-04-01T13:06:25;9.80;99.90
44990;DHT22;30723;51.206;3.326;2023-04-01T13:09:40;9.70;99.90
44990;DHT22;30723;51.206;3.326;2023-04-01T13:15:23;9.70;99.90
44990;DHT22;30723;51.206;3.326;2023-04-01T13:20:36;9.60;99.90
44990;DHT22;30723;51.206;3.326;2023-04-01T13:32:19;9.60;99.90
44990;DHT22;30723;51.206;3.326;2023-04-01T13:37:28;9.70;99.90
44990;DHT22;30723;51.206;3.326;2023-04-01T13:51:40;9.70;99.90
44990;DHT22;30723;51.206;3.326;2023-04-01T14:00:06;9.70;99.90
44990;DHT22;30723;51.206;3.326;2023-04-01T14:45:29;9.60;99.90
44990;DHT22;30723;51.206;3.326;2023-04-01T14:48:17;9.60;99.90
44990;DHT22;30723;51.206;3.326;2023-04-01T14:50:50;9.70;99.90
44990;DHT22;30723;51.206;3.326;2023-04-01T14:56:00;9.70;99.90
44990;DHT22;30723;51.206;3.326;2023-04-01T14:58:47;9.70;99.90
44990;DHT22;30723;51.206;3.326;2023-04-01T15:04:28;9.80;99.90
44990;DHT22;30723;51.206;3.326;2023-04-01T15:09:53;9.70;99.90
44990;DHT22;30723;51.206;3.326;2023-04-01T15:18:21;9.70;99.90
44990;DHT22;30723;51.206;3.326;2023-04-01T15:21:26;9.70;99.90
44990;DHT22;30723;51.206;3.326;2023-04-01T15:26:54;9.70;99.90
44990;DHT22;30723;51.206;3.326;2023-04-01T15:44:04;9.60;99.90
44990;DHT22;30723;51.206;3.326;2023-04-01T15:46:44;9.60;99.90
44990;DHT22;30723;51.206;3.326;2023-04-01T15:52:23;9.70;99.90
44990;DHT22;30723;51.206;3.326;2023-04-01T16:00:41;9.50;99.90
44990;DHT22;30723;51.206;3.326;2023-04-01T16:22:58;9.70;99.90
44990;DHT22;30723;51.206;3.326;2023-04-01T16:25:49;9.70;99.90
44990;DHT22;30723;51.206;3.326;2023-04-01T16:28:31;9.70;99.90
44990;DHT22;30723;51.206;3.326;2023-04-01T16:34:47;9.60;99.90
44990;DHT22;30723;51.206;3.326;2023-04-01T16:37:32;9.60;99.90
44990;DHT22;30723;51.206;3.326;2023-04-01T16:40:23;9.60;99.90
44990;DHT22;30723;51.206;3.326;2023-04-01T16:42:58;9.60;99.90
44990;DHT22;30723;51.206;3.326;2023-04-01T16:45:56;9.60;99.90
44990;DHT22;30723;51.206;3.326;2023-04-01T16:54:38;9.50;99.90
44990;DHT22;30723;51.206;3.326;2023-04-01T17:00:14;9.50;99.90
44990;DHT22;30723;51.206;3.326;2023-04-01T17:05:39;9.60;99.90
44990;DHT22;30723;51.206;3.326;2023-04-01T17:11:18;9.50;99.90
44990;DHT22;30723;51.206;3.326;2023-04-01T17:23:05;9.20;99.90
44990;DHT22;30723;51.206;3.326;2023-04-01T17:37:52;9.00;99.90
44990;DHT22;30723;51.206;3.326;2023-04-01T17:46:09;8.90;99.90
44990;DHT22;30723;51.206;3.326;2023-04-01T18:00:18;8.90;99.90
44990;DHT22;30723;51.206;3.326;2023-04-01T18:04:01;8.90;99.90
44990;DHT22;30723;51.206;3.326;2023-04-01T18:11:59;8.80;99.90
44990;DHT22;30723;51.206;3.326;2023-04-01T18:22:44;8.80;99.90
44990;DHT22;30723;51.206;3.326;2023-04-01T18:25:39;8.80;99.90
44990;DHT22;30723;51.206;3.326;2023-04-01T18:30:55;8.70;99.90
44990;DHT22;30723;51.206;3.326;2023-04-01T18:39:40;8.80;99.90
44990;DHT22;30723;51.206;3.326;2023-04-01T18:42:36;8.70;99.90
44990;DHT22;30723;51.206;3.326;2023-04-01T18:45:27;8.80;99.90
44990;DHT22;30723;51.206;3.326;2023-04-01T18:50:49;8.70;99.90
44990;DHT22;30723;51.206;3.326;2023-04-01T18:53:45;8.70;99.90
44990;DHT22;30723;51.206;3.326;2023-04-01T18:56:38;8.70;99.90
44990;DHT22;30723;51.206;3.326;2023-04-01T18:59:41;8.70;99.90
44990;DHT22;30723;51.206;3.326;2023-04-01T19:02:36;8.70;99.90
44990;DHT22;30723;51.206;3.326;2023-04-01T19:05:14;8.70;99.90
44990;DHT22;30723;51.206;3.326;2023-04-01T19:07:51;8.70;99.90
44990;DHT22;30723;51.206;3.326;2023-04-01T19:21:16;8.70;99.90
44990;DHT22;30723;51.206;3.326;2023-04-01T19:26:45;8.60;99.90
44990;DHT22;30723;51.206;3.326;2023-04-01T19:32:25;8.60;99.90
44990;DHT22;30723;51.206;3.326;2023-04-01T19:34:59;8.60;99.90
44990;DHT22;30723;51.206;3.326;2023-04-01T19:43:23;8.60;99.90
44990;DHT22;30723;51.206;3.326;2023-04-01T19:51:43;8.60;99.90
44990;DHT22;30723;51.206;3.326;2023-04-01T19:57:22;8.60;99.90
44990;DHT22;30723;51.206;3.326;2023-04-01T20:00:05;8.60;99.90
44990;DHT22;30723;51.206;3.326;2023-04-01T20:19:13;8.60;99.90
44990;DHT22;30723;51.206;3.326;2023-04-01T20:21:48;8.50;99.90
44990;DHT22;30723;51.206;3.326;2023-04-01T20:24:34;8.40;99.90
44990;DHT22;30723;51.206;3.326;2023-04-01T20:44:31;8.40;99.90
44990;DHT22;30723;51.206;3.326;2023-04-01T20:50:05;8.40;99.90
44990;DHT22;30723;51.206;3.326;2023-04-01T20:52:40;8.50;99.90
44990;DHT22;30723;51.206;3.326;2023-04-01T20:58:43;8.40;99.90
44990;DHT22;30723;51.206;3.326;2023-04-01T21:04:37;8.40;99.90
44990;DHT22;30723;51.206;3.326;2023-04-01T21:18:47;8.30;99.90
44990;DHT22;30723;51.206;3.326;2023-04-01T21:29:47;8.30;99.90
44990;DHT22;30723;51.206;3.326;2023-04-01T21:36:09;8.30;99.90
44990;DHT22;30723;51.206;3.326;2023-04-01T22:22:08;8.30;99.90
44990;DHT22;30723;51.206;3.326;2023-04-01T22:32:48;8.30;99.90
44990;DHT22;30723;51.206;3.326;2023-04-01T22:41:05;8.40;99.90
44990;DHT22;30723;51.206;3.326;2023-04-01T22:43:38;8.30;99.90
44990;DHT22;30723;51.206;3.326;2023-04-01T22:46:17;8.30;99.90
44990;DHT22;30723;51.206;3.326;2023-04-01T22:49:03;8.30;99.90
44990;DHT22;30723;51.206;3.326;2023-04-01T22:51:45;8.20;99.90
44990;DHT22;30723;51.206;3.326;2023-04-01T22:54:37;8.30;99.90
44990;DHT22;30723;51.206;3.326;2023-04-01T23:03:04;8.40;99.90
44990;DHT22;30723;51.206;3.326;2023-04-01T23:05:59;8.40;99.90
44990;DHT22;30723;51.206;3.326;2023-04-01T23:17:19;8.40;99.90
44990;DHT22;30723;51.206;3.326;2023-04-01T23:23:01;8.30;99.90
44990;DHT22;30723;51.206;3.326;2023-04-01T23:35:57;8.40;99.90
44990;DHT22;30723;51.206;3.326;2023-04-01T23:38:35;8.30;99.90
44990;DHT22;30723;51.206;3.326;2023-04-01T23:41:04;8.40;99.90
44990;DHT22;30723;51.206;3.326;2023-04-01T23:43:33;8.40;99.90
44990;DHT22;30723;51.206;3.326;2023-04-01T23:46:03;8.40;99.90
44990;DHT22;30723;51.206;3.326;2023-04-01T23:48:40;8.50;99.90
44990;DHT22;30723;51.206;3.326;2023-04-01T23:51:26;8.50;99.90
44990;DHT22;30723;51.206;3.326;2023-04-01T23:54:16;8.60;99.90
44990;DHT22;30723;51.206;3.326;2023-04-01T23:56:48;8.40;99.90
44990;DHT22;30723;51.206;3.326;2023-04-01T23:59:19;8.40;99.90
